createdAt,value
2023-05-07T00:01:02.288Z,1.40
2023-05-07T00:03:49.396Z,1.80
2023-05-07T00:06:36.645Z,2.53
2023-05-07T00:09:23.722Z,1.60
2023-05-07T00:12:11.045Z,1.63
2023-05-07T00:14:58.393Z,2.07
2023-05-07T00:17:45.449Z,1.37
2023-05-07T00:20:33.940Z,1.80
2023-05-07T00:23:22.965Z,1.40
2023-05-07T00:26:10.004Z,1.57
2023-05-07T00:28:57.087Z,1.60
2023-05-07T00:31:44.115Z,1.67
2023-05-07T00:34:31.090Z,1.23
2023-05-07T00:37:18.059Z,1.50
2023-05-07T00:40:08.223Z,1.50
2023-05-07T00:42:59.276Z,1.57
2023-05-07T00:45:46.592Z,1.93
2023-05-07T00:48:33.963Z,1.70
2023-05-07T00:51:21.141Z,2.30
2023-05-07T00:54:09.055Z,1.50
2023-05-07T00:56:56.214Z,1.70
2023-05-07T00:59:43.268Z,1.40
2023-05-07T01:02:30.513Z,1.50
2023-05-07T01:05:20.055Z,1.50
2023-05-07T01:08:07.856Z,1.50
2023-05-07T01:10:56.972Z,1.50
2023-05-07T01:13:44.292Z,1.37
2023-05-07T01:16:32.195Z,1.40
2023-05-07T01:19:20.371Z,1.70
2023-05-07T01:22:11.537Z,1.50
2023-05-07T01:25:10.602Z,1.60
2023-05-07T01:28:02.543Z,1.47
2023-05-07T01:31:03.263Z,1.37
2023-05-07T01:33:52.909Z,1.90
2023-05-07T01:36:40.961Z,1.37
2023-05-07T01:39:29.956Z,1.40
2023-05-07T01:42:16.966Z,1.27
2023-05-07T01:45:04.271Z,1.50
2023-05-07T01:47:52.557Z,1.43
2023-05-07T01:50:40.371Z,1.43
2023-05-07T01:53:29.028Z,1.53
2023-05-07T01:56:16.255Z,1.30
2023-05-07T01:59:03.676Z,1.50
2023-05-07T02:01:50.784Z,1.40
2023-05-07T02:04:37.944Z,2.03
2023-05-07T02:07:24.966Z,2.27
2023-05-07T02:10:12.297Z,2.03
2023-05-07T02:13:00.683Z,3.57
2023-05-07T02:15:51.270Z,1.80
2023-05-07T02:18:38.886Z,1.97
2023-05-07T02:21:26.206Z,1.77
2023-05-07T02:24:13.227Z,1.67
2023-05-07T02:27:00.235Z,1.67
2023-05-07T02:29:47.433Z,2.33
2023-05-07T02:32:34.737Z,3.83
2023-05-07T02:35:21.804Z,1.93
2023-05-07T02:38:11.574Z,2.00
2023-05-07T02:40:59.468Z,1.93
2023-05-07T02:43:46.457Z,1.73
2023-05-07T02:46:34.289Z,2.37
2023-05-07T02:49:25.847Z,1.57
2023-05-07T02:52:12.880Z,1.60
2023-05-07T02:54:59.772Z,1.40
2023-05-07T02:57:46.790Z,2.57
2023-05-07T03:00:33.952Z,2.27
2023-05-07T03:03:33.263Z,1.73
2023-05-07T03:06:20.221Z,2.23
2023-05-07T03:09:08.270Z,2.87
2023-05-07T03:11:55.303Z,2.10
2023-05-07T03:14:42.346Z,1.80
2023-05-07T03:17:29.369Z,2.57
2023-05-07T03:20:16.722Z,1.70
2023-05-07T03:23:04.044Z,2.13
2023-05-07T03:25:51.023Z,1.93
2023-05-07T03:28:38.387Z,1.70
2023-05-07T03:31:28.994Z,3.27
2023-05-07T03:34:17.878Z,2.17
2023-05-07T03:37:04.957Z,1.90
2023-05-07T03:39:51.997Z,2.00
2023-05-07T03:42:39.707Z,2.10
2023-05-07T03:45:26.869Z,3.03
2023-05-07T03:48:30.467Z,1.40
2023-05-07T03:51:19.390Z,1.80
2023-05-07T03:54:06.522Z,1.70
2023-05-07T03:56:54.417Z,2.60
2023-05-07T03:59:42.136Z,1.47
2023-05-07T04:02:29.714Z,1.50
2023-05-07T04:05:17.821Z,1.70
2023-05-07T04:08:07.163Z,2.13
2023-05-07T04:11:01.305Z,1.83
2023-05-07T04:13:51.388Z,1.83
2023-05-07T04:16:41.843Z,1.77
2023-05-07T04:19:29.430Z,1.47
2023-05-07T04:22:16.747Z,1.33
2023-05-07T04:25:04.455Z,1.70
2023-05-07T04:27:53.170Z,1.50
2023-05-07T04:30:42.294Z,1.93
2023-05-07T04:33:30.261Z,1.80
2023-05-07T04:36:18.683Z,1.67
2023-05-07T04:39:18.464Z,1.73
2023-05-07T04:42:09.797Z,1.57
2023-05-07T04:44:57.089Z,1.63
2023-05-07T04:47:45.121Z,2.10
2023-05-07T04:50:32.291Z,2.87
2023-05-07T04:53:22.784Z,2.60
2023-05-07T04:56:11.212Z,2.57
2023-05-07T04:59:02.144Z,2.80
2023-05-07T05:01:50.181Z,2.80
2023-05-07T05:04:37.878Z,2.93
2023-05-07T05:07:25.286Z,2.90
2023-05-07T05:10:13.092Z,2.93
2023-05-07T05:13:02.859Z,2.90
2023-05-07T05:15:50.787Z,3.30
2023-05-07T05:18:38.025Z,3.30
2023-05-07T05:21:25.414Z,3.93
2023-05-07T05:24:17.699Z,5.57
2023-05-07T05:27:05.113Z,5.83
2023-05-07T05:29:52.524Z,6.27
2023-05-07T05:32:39.650Z,7.63
2023-05-07T05:35:27.330Z,5.80
2023-05-07T05:38:14.550Z,6.13
2023-05-07T05:41:02.131Z,6.03
2023-05-07T05:43:50.935Z,5.57
2023-05-07T05:46:39.194Z,5.13
2023-05-07T05:49:27.040Z,4.23
2023-05-07T05:52:15.293Z,3.80
2023-05-07T05:55:02.472Z,4.13
2023-05-07T05:57:49.691Z,4.00
2023-05-07T06:00:36.838Z,3.57
2023-05-07T06:03:26.239Z,3.47
2023-05-07T06:06:15.450Z,3.40
2023-05-07T06:09:03.810Z,3.80
2023-05-07T06:12:00.376Z,3.47
2023-05-07T06:14:48.455Z,3.40
2023-05-07T06:17:35.755Z,3.43
2023-05-07T06:20:22.995Z,2.97
2023-05-07T06:23:10.735Z,3.70
2023-05-07T06:25:58.486Z,3.40
2023-05-07T06:28:50.464Z,3.73
2023-05-07T06:31:38.169Z,3.43
2023-05-07T06:34:28.372Z,3.57
2023-05-07T06:37:16.167Z,3.33
2023-05-07T06:40:12.086Z,3.30
2023-05-07T06:43:00.664Z,3.47
2023-05-07T06:46:08.047Z,3.60
2023-05-07T06:48:55.861Z,4.20
2023-05-07T06:51:43.063Z,4.20
2023-05-07T06:54:30.261Z,3.07
2023-05-07T06:57:17.542Z,4.10
2023-05-07T07:00:08.050Z,3.77
2023-05-07T07:03:01.638Z,3.97
2023-05-07T07:05:53.120Z,3.50
2023-05-07T07:08:40.254Z,4.13
2023-05-07T07:11:28.453Z,3.27
2023-05-07T07:14:15.891Z,3.63
2023-05-07T07:17:08.636Z,3.23
2023-05-07T07:19:55.928Z,4.10
2023-05-07T07:22:43.560Z,3.70
2023-05-07T07:25:30.645Z,3.80
2023-05-07T07:28:18.592Z,3.93
2023-05-07T07:31:05.788Z,4.07
2023-05-07T07:33:53.321Z,3.77
2023-05-07T07:36:46.153Z,4.00
2023-05-07T07:39:38.635Z,4.40
2023-05-07T07:42:27.117Z,4.47
2023-05-07T07:45:14.352Z,4.17
2023-05-07T07:48:06.124Z,4.97
2023-05-07T07:50:56.900Z,3.97
2023-05-07T07:53:44.505Z,4.03
2023-05-07T07:56:34.265Z,3.87
2023-05-07T07:59:21.837Z,3.40
2023-05-07T08:02:10.624Z,4.43
2023-05-07T08:04:58.058Z,3.67
2023-05-07T08:07:45.648Z,3.97
2023-05-07T08:10:35.775Z,3.27
2023-05-07T08:13:28.647Z,3.13
2023-05-07T08:16:16.248Z,3.47
2023-05-07T08:19:03.369Z,3.50
2023-05-07T08:21:50.431Z,3.50
2023-05-07T08:24:38.214Z,3.30
2023-05-07T08:27:25.326Z,3.37
2023-05-07T08:30:13.167Z,3.50
2023-05-07T08:33:01.699Z,3.60
2023-05-07T08:35:48.828Z,3.70
2023-05-07T08:38:36.392Z,3.50
2023-05-07T08:41:23.827Z,3.43
2023-05-07T08:44:14.345Z,3.80
2023-05-07T08:47:03.430Z,3.50
2023-05-07T08:49:52.492Z,3.53
2023-05-07T08:52:41.478Z,3.07
2023-05-07T08:55:30.342Z,3.23
2023-05-07T08:58:17.680Z,3.10
2023-05-07T09:01:09.566Z,3.07
2023-05-07T09:03:58.818Z,3.47
2023-05-07T09:06:49.084Z,3.20
2023-05-07T09:09:36.395Z,3.20
2023-05-07T09:12:25.000Z,3.57
2023-05-07T09:15:13.297Z,3.53
2023-05-07T09:18:04.499Z,4.43
2023-05-07T09:20:53.815Z,3.60
2023-05-07T09:23:43.325Z,3.37
2023-05-07T09:26:30.918Z,3.40
2023-05-07T09:29:18.782Z,3.70
2023-05-07T09:32:07.546Z,3.80
2023-05-07T09:34:55.533Z,3.53
2023-05-07T09:37:44.863Z,2.73
2023-05-07T09:40:32.266Z,2.70
2023-05-07T09:43:23.684Z,2.83
2023-05-07T09:46:17.811Z,3.30
2023-05-07T09:49:18.099Z,3.40
2023-05-07T09:52:09.620Z,2.73
2023-05-07T09:55:00.891Z,3.00
2023-05-07T09:57:54.028Z,2.70
2023-05-07T10:00:43.500Z,3.17
2023-05-07T10:03:36.692Z,3.00
2023-05-07T10:06:26.769Z,2.93
2023-05-07T10:09:14.792Z,3.60
2023-05-07T10:12:02.158Z,3.00
2023-05-07T10:14:52.375Z,2.53
2023-05-07T10:17:41.013Z,2.17
2023-05-07T10:20:30.513Z,2.43
2023-05-07T10:23:24.332Z,2.13
2023-05-07T10:26:15.862Z,2.50
2023-05-07T10:29:11.634Z,2.33
2023-05-07T10:32:26.404Z,2.20
2023-05-07T10:35:23.996Z,2.20
2023-05-07T10:38:11.293Z,3.03
2023-05-07T10:41:00.670Z,2.10
2023-05-07T10:43:49.600Z,2.50
2023-05-07T10:47:06.828Z,2.23
2023-05-07T10:50:13.882Z,2.53
2023-05-07T10:53:20.383Z,2.30
2023-05-07T10:56:19.523Z,2.33
2023-05-07T10:59:22.007Z,2.20
2023-05-07T11:02:15.203Z,2.37
2023-05-07T11:05:22.612Z,2.43
2023-05-07T11:08:24.928Z,2.17
2023-05-07T11:11:47.992Z,2.43
2023-05-07T11:14:43.446Z,2.30
2023-05-07T11:17:37.427Z,2.00
2023-05-07T11:20:53.106Z,2.50
2023-05-07T11:24:00.647Z,4.20
2023-05-07T11:26:54.940Z,1.97
2023-05-07T11:29:48.249Z,2.50
2023-05-07T11:32:35.816Z,1.97
2023-05-07T11:35:24.882Z,1.70
2023-05-07T11:38:13.924Z,1.93
2023-05-07T11:41:02.736Z,4.53
2023-05-07T11:43:57.693Z,2.00
2023-05-07T11:46:45.836Z,3.30
2023-05-07T11:49:32.855Z,4.17
2023-05-07T11:52:21.809Z,2.00
2023-05-07T11:55:09.568Z,3.27
2023-05-07T11:57:56.659Z,2.30
2023-05-07T12:00:50.421Z,1.90
2023-05-07T12:03:38.793Z,1.60
2023-05-07T12:06:26.635Z,2.00
2023-05-07T12:09:13.678Z,1.70
2023-05-07T12:12:05.036Z,2.50
2023-05-07T12:14:51.989Z,1.80
2023-05-07T12:17:39.336Z,1.80
2023-05-07T12:20:27.148Z,2.73
2023-05-07T12:23:14.244Z,2.30
2023-05-07T12:26:01.520Z,2.00
2023-05-07T12:28:49.760Z,1.70
2023-05-07T12:31:36.922Z,2.00
2023-05-07T12:34:24.025Z,1.87
2023-05-07T12:37:11.769Z,1.43
2023-05-07T12:40:10.251Z,1.70
2023-05-07T12:42:59.019Z,2.00
2023-05-07T12:45:49.301Z,1.40
2023-05-07T12:48:39.820Z,1.67
2023-05-07T12:51:29.014Z,1.90
2023-05-07T12:54:38.746Z,1.63
2023-05-07T12:57:25.728Z,2.70
2023-05-07T13:00:13.927Z,1.63
2023-05-07T13:03:01.007Z,1.70
2023-05-07T13:05:47.994Z,1.90
2023-05-07T13:08:38.472Z,1.67
2023-05-07T13:11:26.005Z,2.13
2023-05-07T13:14:13.513Z,1.40
2023-05-07T13:17:00.479Z,1.50
2023-05-07T13:19:47.472Z,1.60
2023-05-07T13:22:34.592Z,1.47
2023-05-07T13:25:21.584Z,1.43
2023-05-07T13:28:11.322Z,1.67
2023-05-07T13:30:58.708Z,2.10
2023-05-07T13:33:45.817Z,1.90
2023-05-07T13:36:36.370Z,1.70
2023-05-07T13:39:23.403Z,1.97
2023-05-07T13:42:10.571Z,2.10
2023-05-07T13:44:58.392Z,1.70
2023-05-07T13:47:46.604Z,2.23
2023-05-07T13:50:33.638Z,1.63
2023-05-07T13:53:20.928Z,2.10
2023-05-07T13:56:07.931Z,1.80
2023-05-07T13:59:00.008Z,1.73
2023-05-07T14:01:48.243Z,2.20
2023-05-07T14:04:35.683Z,1.90
2023-05-07T14:07:22.734Z,1.80
2023-05-07T14:10:10.903Z,1.80
2023-05-07T14:12:58.242Z,1.90
2023-05-07T14:15:49.506Z,1.77
2023-05-07T14:18:38.091Z,1.60
2023-05-07T14:21:25.230Z,1.50
2023-05-07T14:24:12.256Z,1.30
2023-05-07T14:26:59.262Z,2.03
2023-05-07T14:29:46.582Z,1.70
2023-05-07T14:32:34.507Z,1.97
2023-05-07T14:35:21.563Z,1.80
2023-05-07T14:38:08.592Z,1.73
2023-05-07T14:40:57.168Z,1.67
2023-05-07T14:43:44.928Z,2.10
2023-05-07T14:46:31.899Z,2.40
2023-05-07T14:49:18.957Z,2.43
2023-05-07T14:52:07.199Z,2.17
2023-05-07T14:54:54.289Z,1.97
2023-05-07T14:57:41.472Z,2.20
2023-05-07T15:00:29.247Z,2.23
2023-05-07T15:03:16.503Z,1.80
2023-05-07T15:06:05.986Z,1.93
2023-05-07T15:08:53.032Z,2.10
2023-05-07T15:11:40.115Z,1.90
2023-05-07T15:14:27.674Z,2.13
2023-05-07T15:17:15.952Z,2.13
2023-05-07T15:20:05.662Z,1.80
2023-05-07T15:22:52.920Z,2.00
2023-05-07T15:25:39.980Z,1.80
2023-05-07T15:28:27.892Z,2.07
2023-05-07T15:31:17.884Z,2.00
2023-05-07T15:34:04.898Z,1.90
2023-05-07T15:36:51.913Z,1.93
2023-05-07T15:39:38.985Z,2.43
2023-05-07T15:42:26.035Z,2.03
2023-05-07T15:45:14.108Z,2.03
2023-05-07T15:48:01.331Z,2.43
2023-05-07T15:50:48.517Z,2.27
2023-05-07T15:53:35.744Z,2.47
2023-05-07T15:56:22.764Z,2.40
2023-05-07T15:59:10.191Z,2.57
2023-05-07T16:01:57.174Z,2.30
2023-05-07T16:04:44.220Z,2.93
2023-05-07T16:07:31.300Z,2.60
2023-05-07T16:10:18.535Z,2.60
2023-05-07T16:13:05.707Z,2.93
2023-05-07T16:15:58.313Z,2.40
2023-05-07T16:18:45.348Z,2.67
2023-05-07T16:21:33.131Z,2.73
2023-05-07T16:24:20.706Z,3.03
2023-05-07T16:27:07.729Z,3.00
2023-05-07T16:29:54.720Z,2.83
2023-05-07T16:32:42.021Z,3.00
2023-05-07T16:35:29.091Z,3.10
2023-05-07T16:38:16.109Z,2.90
2023-05-07T16:41:03.434Z,2.80
2023-05-07T16:43:50.465Z,2.83
2023-05-07T16:46:37.508Z,3.20
2023-05-07T16:49:24.530Z,2.90
2023-05-07T16:52:11.488Z,3.50
2023-05-07T16:55:01.301Z,3.03
2023-05-07T16:57:48.739Z,3.10
2023-05-07T17:00:49.035Z,4.70
2023-05-07T17:03:38.377Z,3.07
2023-05-07T17:06:25.659Z,3.00
2023-05-07T17:09:12.655Z,3.47
2023-05-07T17:11:59.713Z,3.37
2023-05-07T17:14:46.684Z,3.10
2023-05-07T17:17:33.773Z,3.47
2023-05-07T17:20:20.895Z,3.70
2023-05-07T17:23:07.888Z,3.43
2023-05-07T17:25:54.920Z,3.63
2023-05-07T17:28:41.957Z,3.27
2023-05-07T17:31:29.114Z,3.67
2023-05-07T17:34:16.402Z,3.57
2023-05-07T17:37:03.452Z,3.63
2023-05-07T17:39:52.560Z,3.60
2023-05-07T17:42:39.758Z,4.57
2023-05-07T17:45:26.789Z,3.37
2023-05-07T17:48:13.818Z,4.20
2023-05-07T17:51:02.401Z,4.40
2023-05-07T17:53:50.204Z,3.80
2023-05-07T17:56:38.181Z,4.53
2023-05-07T17:59:25.163Z,3.53
2023-05-07T18:02:12.272Z,4.53
2023-05-07T18:04:59.606Z,3.80
2023-05-07T18:07:46.719Z,3.97
2023-05-07T18:10:33.789Z,4.27
2023-05-07T18:13:20.936Z,4.37
2023-05-07T18:16:09.071Z,3.73
2023-05-07T18:18:56.251Z,3.83
2023-05-07T18:21:43.223Z,4.07
2023-05-07T18:24:30.304Z,4.17
2023-05-07T18:27:17.641Z,4.30
2023-05-07T18:30:05.131Z,4.67
2023-05-07T18:32:52.400Z,4.43
2023-05-07T18:35:39.444Z,4.37
2023-05-07T18:38:26.407Z,4.43
2023-05-07T18:41:13.398Z,4.17
2023-05-07T18:44:00.470Z,4.57
2023-05-07T18:46:48.702Z,4.40
2023-05-07T18:49:36.051Z,4.70
2023-05-07T18:52:23.348Z,6.03
2023-05-07T18:55:11.706Z,4.60
2023-05-07T18:57:58.722Z,4.33
2023-05-07T19:00:49.726Z,4.60
2023-05-07T19:03:36.905Z,4.40
2023-05-07T19:06:23.921Z,4.47
2023-05-07T19:09:11.868Z,4.50
2023-05-07T19:11:59.209Z,4.60
2023-05-07T19:14:46.719Z,5.43
2023-05-07T19:17:35.458Z,4.70
2023-05-07T19:20:22.590Z,4.40
2023-05-07T19:23:11.495Z,4.73
2023-05-07T19:25:58.655Z,4.97
2023-05-07T19:28:48.466Z,4.77
2023-05-07T19:31:43.633Z,4.17
2023-05-07T19:34:30.784Z,4.80
2023-05-07T19:37:18.290Z,4.60
2023-05-07T19:40:06.614Z,5.00
2023-05-07T19:42:53.631Z,4.57
2023-05-07T19:45:43.391Z,4.70
2023-05-07T19:48:30.589Z,4.60
2023-05-07T19:51:17.694Z,4.60
2023-05-07T19:54:05.021Z,4.47
2023-05-07T19:56:52.081Z,4.97
2023-05-07T19:59:39.098Z,5.30
2023-05-07T20:02:27.046Z,5.03
2023-05-07T20:05:14.468Z,4.80
2023-05-07T20:08:02.418Z,5.37
2023-05-07T20:10:50.723Z,4.53
2023-05-07T20:13:37.723Z,5.30
2023-05-07T20:16:24.705Z,4.73
2023-05-07T20:19:11.812Z,5.17
2023-05-07T20:21:58.833Z,4.23
2023-05-07T20:24:45.801Z,4.83
2023-05-07T20:27:34.561Z,5.30
2023-05-07T20:30:23.737Z,5.10
2023-05-07T20:33:11.004Z,5.10
2023-05-07T20:35:58.743Z,4.80
2023-05-07T20:38:45.873Z,4.93
2023-05-07T20:41:32.884Z,5.13
2023-05-07T20:44:20.078Z,4.37
2023-05-07T20:47:07.147Z,4.80
2023-05-07T20:49:54.865Z,4.97
2023-05-07T20:52:42.250Z,4.80
2023-05-07T20:55:29.234Z,5.10
2023-05-07T20:58:16.244Z,4.70
2023-05-07T21:01:04.987Z,4.70
2023-05-07T21:03:54.107Z,5.03
2023-05-07T21:06:41.293Z,4.80
2023-05-07T21:09:28.313Z,4.90
2023-05-07T21:12:15.407Z,4.40
2023-05-07T21:15:02.381Z,4.57
2023-05-07T21:17:49.395Z,4.73
2023-05-07T21:20:36.895Z,4.67
2023-05-07T21:23:23.900Z,5.20
2023-05-07T21:26:17.166Z,4.50
2023-05-07T21:29:04.728Z,4.73
2023-05-07T21:31:51.747Z,4.90
2023-05-07T21:34:38.776Z,4.40
2023-05-07T21:37:25.741Z,4.80
2023-05-07T21:40:13.412Z,4.50
2023-05-07T21:43:00.785Z,4.47
2023-05-07T21:45:47.779Z,4.60
2023-05-07T21:48:35.302Z,4.67
2023-05-07T21:51:22.315Z,4.77
2023-05-07T21:54:09.289Z,4.77
2023-05-07T21:56:56.229Z,4.63
2023-05-07T21:59:43.218Z,4.47
2023-05-07T22:02:30.374Z,4.37
2023-05-07T22:05:17.484Z,4.27
2023-05-07T22:08:04.766Z,3.87
2023-05-07T22:10:51.822Z,4.00
2023-05-07T22:13:38.829Z,4.00
2023-05-07T22:16:25.897Z,4.40
2023-05-07T22:19:15.019Z,4.40
2023-05-07T22:22:02.103Z,4.13
2023-05-07T22:24:49.157Z,4.20
2023-05-07T22:27:36.113Z,4.40
2023-05-07T22:30:23.093Z,4.20
2023-05-07T22:33:10.152Z,4.03
2023-05-07T22:35:57.160Z,3.93
2023-05-07T22:38:44.218Z,4.17
2023-05-07T22:41:31.207Z,4.07
2023-05-07T22:44:18.206Z,3.90
2023-05-07T22:47:05.325Z,3.70
2023-05-07T22:49:52.308Z,3.60
2023-05-07T22:52:39.394Z,4.30
2023-05-07T22:55:27.069Z,3.87
2023-05-07T22:58:14.192Z,4.43
2023-05-07T23:01:02.287Z,4.00
2023-05-07T23:03:49.351Z,4.10
2023-05-07T23:06:36.375Z,3.73
2023-05-07T23:09:23.617Z,4.00
2023-05-07T23:12:10.694Z,4.17
2023-05-07T23:14:57.740Z,3.83
2023-05-07T23:17:45.739Z,3.90
2023-05-07T23:20:32.814Z,4.97
2023-05-07T23:23:19.804Z,4.33
2023-05-07T23:26:06.901Z,3.80
2023-05-07T23:28:53.988Z,4.20
2023-05-07T23:31:41.278Z,4.17
2023-05-07T23:34:28.279Z,3.77
2023-05-07T23:37:15.319Z,3.60
2023-05-07T23:40:02.338Z,4.13
2023-05-07T23:42:49.401Z,4.07
2023-05-07T23:45:36.367Z,3.83
2023-05-07T23:48:23.521Z,4.30
2023-05-07T23:51:10.575Z,4.07
2023-05-07T23:53:57.599Z,4.23
2023-05-07T23:56:44.553Z,4.20
2023-05-07T23:59:31.586Z,4.47
